sensor_id;sensor_type;location;lat;lon;timestamp;P1;durP1;ratioP1;P2;durP2;ratioP2
67997;SDS011;54773;53.388;-1.504;2023-07-13T00:00:18;8.40;;;2.72;;
67997;SDS011;54773;53.388;-1.504;2023-07-13T00:03:02;8.37;;;2.80;;
67997;SDS011;54773;53.388;-1.504;2023-07-13T00:05:47;7.18;;;2.50;;
67997;SDS011;54773;53.388;-1.504;2023-07-13T00:08:31;9.88;;;2.50;;
67997;SDS011;54773;53.388;-1.504;2023-07-13T00:14:00;6.07;;;2.55;;
67997;SDS011;54773;53.388;-1.504;2023-07-13T00:16:44;7.30;;;2.20;;
67997;SDS011;54773;53.388;-1.504;2023-07-13T00:19:28;6.45;;;2.17;;
67997;SDS011;54773;53.388;-1.504;2023-07-13T00:22:13;6.95;;;2.33;;
67997;SDS011;54773;53.388;-1.504;2023-07-13T00:24:57;5.80;;;2.33;;
67997;SDS011;54773;53.388;-1.504;2023-07-13T00:27:42;5.47;;;2.10;;
67997;SDS011;54773;53.388;-1.504;2023-07-13T00:30:29;9.60;;;2.80;;
67997;SDS011;54773;53.388;-1.504;2023-07-13T00:33:14;6.15;;;2.38;;
67997;SDS011;54773;53.388;-1.504;2023-07-13T00:35:58;6.53;;;2.13;;
67997;SDS011;54773;53.388;-1.504;2023-07-13T00:38:43;5.85;;;2.55;;
67997;SDS011;54773;53.388;-1.504;2023-07-13T00:41:27;5.43;;;2.40;;
67997;SDS011;54773;53.388;-1.504;2023-07-13T00:44:15;11.30;;;3.53;;
67997;SDS011;54773;53.388;-1.504;2023-07-13T00:47:00;8.95;;;2.90;;
67997;SDS011;54773;53.388;-1.504;2023-07-13T00:49:44;7.90;;;2.63;;
67997;SDS011;54773;53.388;-1.504;2023-07-13T00:52:28;4.97;;;3.07;;
67997;SDS011;54773;53.388;-1.504;2023-07-13T00:55:13;7.20;;;2.50;;
67997;SDS011;54773;53.388;-1.504;2023-07-13T00:57:57;7.40;;;2.85;;
67997;SDS011;54773;53.388;-1.504;2023-07-13T01:00:41;4.55;;;2.70;;
67997;SDS011;54773;53.388;-1.504;2023-07-13T01:03:25;8.15;;;2.90;;
67997;SDS011;54773;53.388;-1.504;2023-07-13T01:06:11;8.93;;;2.90;;
67997;SDS011;54773;53.388;-1.504;2023-07-13T01:08:57;6.67;;;2.43;;
67997;SDS011;54773;53.388;-1.504;2023-07-13T01:11:44;5.60;;;3.00;;
67997;SDS011;54773;53.388;-1.504;2023-07-13T01:14:30;6.53;;;2.75;;
67997;SDS011;54773;53.388;-1.504;2023-07-13T01:17:14;6.18;;;2.00;;
67997;SDS011;54773;53.388;-1.504;2023-07-13T01:20:01;5.07;;;2.30;;
67997;SDS011;54773;53.388;-1.504;2023-07-13T01:22:46;4.60;;;1.80;;
67997;SDS011;54773;53.388;-1.504;2023-07-13T01:25:34;6.55;;;2.30;;
67997;SDS011;54773;53.388;-1.504;2023-07-13T01:28:19;4.45;;;1.98;;
67997;SDS011;54773;53.388;-1.504;2023-07-13T01:31:03;6.13;;;2.10;;
67997;SDS011;54773;53.388;-1.504;2023-07-13T01:33:48;6.28;;;2.13;;
67997;SDS011;54773;53.388;-1.504;2023-07-13T01:36:32;4.78;;;1.88;;
67997;SDS011;54773;53.388;-1.504;2023-07-13T01:39:17;6.53;;;1.90;;
67997;SDS011;54773;53.388;-1.504;2023-07-13T01:42:01;5.88;;;2.00;;
67997;SDS011;54773;53.388;-1.504;2023-07-13T01:44:45;4.82;;;2.40;;
67997;SDS011;54773;53.388;-1.504;2023-07-13T01:47:32;5.30;;;2.53;;
67997;SDS011;54773;53.388;-1.504;2023-07-13T01:50:16;6.32;;;2.80;;
67997;SDS011;54773;53.388;-1.504;2023-07-13T01:53:04;5.90;;;2.80;;
67997;SDS011;54773;53.388;-1.504;2023-07-13T01:55:48;5.53;;;3.45;;
67997;SDS011;54773;53.388;-1.504;2023-07-13T01:58:32;7.53;;;4.00;;
67997;SDS011;54773;53.388;-1.504;2023-07-13T02:01:17;6.40;;;3.88;;
67997;SDS011;54773;53.388;-1.504;2023-07-13T02:04:02;7.20;;;4.10;;
67997;SDS011;54773;53.388;-1.504;2023-07-13T02:06:46;6.38;;;4.07;;
67997;SDS011;54773;53.388;-1.504;2023-07-13T02:09:31;11.75;;;4.00;;
67997;SDS011;54773;53.388;-1.504;2023-07-13T02:12:18;9.50;;;4.60;;
67997;SDS011;54773;53.388;-1.504;2023-07-13T02:15:02;12.25;;;4.20;;
67997;SDS011;54773;53.388;-1.504;2023-07-13T02:17:48;11.75;;;4.45;;
67997;SDS011;54773;53.388;-1.504;2023-07-13T02:20:33;10.77;;;4.55;;
67997;SDS011;54773;53.388;-1.504;2023-07-13T02:23:18;8.23;;;4.07;;
67997;SDS011;54773;53.388;-1.504;2023-07-13T02:26:03;7.32;;;4.55;;
67997;SDS011;54773;53.388;-1.504;2023-07-13T02:28:50;10.32;;;4.55;;
67997;SDS011;54773;53.388;-1.504;2023-07-13T02:31:35;9.05;;;4.28;;
67997;SDS011;54773;53.388;-1.504;2023-07-13T02:34:19;8.13;;;4.13;;
67997;SDS011;54773;53.388;-1.504;2023-07-13T02:37:06;9.70;;;4.53;;
67997;SDS011;54773;53.388;-1.504;2023-07-13T02:39:50;10.18;;;4.55;;
67997;SDS011;54773;53.388;-1.504;2023-07-13T02:42:35;7.72;;;4.53;;
67997;SDS011;54773;53.388;-1.504;2023-07-13T02:45:19;10.93;;;4.97;;
67997;SDS011;54773;53.388;-1.504;2023-07-13T02:48:06;8.23;;;5.53;;
67997;SDS011;54773;53.388;-1.504;2023-07-13T02:50:51;9.93;;;5.53;;
67997;SDS011;54773;53.388;-1.504;2023-07-13T02:53:35;8.18;;;5.75;;
67997;SDS011;54773;53.388;-1.504;2023-07-13T02:59:07;9.32;;;5.28;;
67997;SDS011;54773;53.388;-1.504;2023-07-13T03:01:51;9.50;;;5.68;;
67997;SDS011;54773;53.388;-1.504;2023-07-13T03:04:35;10.63;;;6.03;;
67997;SDS011;54773;53.388;-1.504;2023-07-13T03:07:21;9.75;;;5.88;;
67997;SDS011;54773;53.388;-1.504;2023-07-13T03:10:06;12.52;;;5.93;;
67997;SDS011;54773;53.388;-1.504;2023-07-13T03:12:51;8.38;;;5.13;;
67997;SDS011;54773;53.388;-1.504;2023-07-13T03:15:37;9.20;;;5.50;;
67997;SDS011;54773;53.388;-1.504;2023-07-13T03:18:21;8.33;;;5.20;;
67997;SDS011;54773;53.388;-1.504;2023-07-13T03:21:05;8.30;;;5.97;;
67997;SDS011;54773;53.388;-1.504;2023-07-13T03:23:49;10.10;;;5.15;;
67997;SDS011;54773;53.388;-1.504;2023-07-13T03:26:36;9.73;;;5.57;;
67997;SDS011;54773;53.388;-1.504;2023-07-13T03:29:22;9.35;;;5.35;;
67997;SDS011;54773;53.388;-1.504;2023-07-13T03:32:06;9.83;;;5.37;;
67997;SDS011;54773;53.388;-1.504;2023-07-13T03:34:51;9.00;;;5.60;;
67997;SDS011;54773;53.388;-1.504;2023-07-13T03:37:35;10.97;;;5.07;;
67997;SDS011;54773;53.388;-1.504;2023-07-13T03:40:27;10.05;;;5.40;;
67997;SDS011;54773;53.388;-1.504;2023-07-13T03:43:15;9.02;;;5.10;;
67997;SDS011;54773;53.388;-1.504;2023-07-13T03:45:59;10.15;;;5.10;;
67997;SDS011;54773;53.388;-1.504;2023-07-13T03:48:44;8.63;;;5.10;;
67997;SDS011;54773;53.388;-1.504;2023-07-13T03:51:30;9.07;;;5.60;;
67997;SDS011;54773;53.388;-1.504;2023-07-13T03:54:14;9.38;;;5.13;;
67997;SDS011;54773;53.388;-1.504;2023-07-13T03:56:59;11.40;;;5.20;;
67997;SDS011;54773;53.388;-1.504;2023-07-13T03:59:43;6.50;;;4.33;;
67997;SDS011;54773;53.388;-1.504;2023-07-13T04:02:27;6.20;;;4.00;;
67997;SDS011;54773;53.388;-1.504;2023-07-13T04:05:11;9.43;;;5.03;;
67997;SDS011;54773;53.388;-1.504;2023-07-13T04:07:55;6.47;;;3.83;;
67997;SDS011;54773;53.388;-1.504;2023-07-13T04:10:40;6.30;;;3.90;;
67997;SDS011;54773;53.388;-1.504;2023-07-13T04:13:28;7.13;;;3.90;;
67997;SDS011;54773;53.388;-1.504;2023-07-13T04:16:13;7.50;;;4.15;;
67997;SDS011;54773;53.388;-1.504;2023-07-13T04:18:59;4.78;;;3.58;;
67997;SDS011;54773;53.388;-1.504;2023-07-13T04:21:43;7.40;;;3.70;;
67997;SDS011;54773;53.388;-1.504;2023-07-13T04:24:28;6.20;;;4.22;;
67997;SDS011;54773;53.388;-1.504;2023-07-13T04:27:12;8.93;;;4.05;;
67997;SDS011;54773;53.388;-1.504;2023-07-13T04:29:57;8.15;;;4.15;;
67997;SDS011;54773;53.388;-1.504;2023-07-13T04:32:44;7.15;;;4.10;;
67997;SDS011;54773;53.388;-1.504;2023-07-13T04:35:29;6.78;;;3.95;;
67997;SDS011;54773;53.388;-1.504;2023-07-13T04:38:12;5.83;;;4.33;;
67997;SDS011;54773;53.388;-1.504;2023-07-13T04:41:05;7.07;;;3.97;;
67997;SDS011;54773;53.388;-1.504;2023-07-13T04:43:50;5.82;;;3.65;;
67997;SDS011;54773;53.388;-1.504;2023-07-13T04:46:35;5.93;;;3.88;;
67997;SDS011;54773;53.388;-1.504;2023-07-13T04:49:21;7.20;;;4.05;;
67997;SDS011;54773;53.388;-1.504;2023-07-13T04:52:05;7.87;;;4.83;;
67997;SDS011;54773;53.388;-1.504;2023-07-13T04:54:51;5.97;;;4.38;;
67997;SDS011;54773;53.388;-1.504;2023-07-13T04:57:35;6.53;;;4.40;;
67997;SDS011;54773;53.388;-1.504;2023-07-13T05:00:19;8.23;;;4.23;;
67997;SDS011;54773;53.388;-1.504;2023-07-13T05:03:03;5.35;;;3.75;;
67997;SDS011;54773;53.388;-1.504;2023-07-13T05:05:58;8.05;;;4.82;;
67997;SDS011;54773;53.388;-1.504;2023-07-13T05:08:44;6.28;;;4.65;;
67997;SDS011;54773;53.388;-1.504;2023-07-13T05:11:28;6.80;;;4.70;;
67997;SDS011;54773;53.388;-1.504;2023-07-13T05:14:15;8.43;;;5.40;;
67997;SDS011;54773;53.388;-1.504;2023-07-13T05:17:03;7.38;;;5.30;;
67997;SDS011;54773;53.388;-1.504;2023-07-13T05:19:50;8.32;;;5.10;;
67997;SDS011;54773;53.388;-1.504;2023-07-13T05:22:35;6.00;;;4.65;;
67997;SDS011;54773;53.388;-1.504;2023-07-13T05:25:20;5.32;;;4.15;;
67997;SDS011;54773;53.388;-1.504;2023-07-13T05:28:04;6.88;;;4.45;;
67997;SDS011;54773;53.388;-1.504;2023-07-13T05:30:48;8.20;;;4.63;;
67997;SDS011;54773;53.388;-1.504;2023-07-13T05:33:33;7.75;;;4.80;;
67997;SDS011;54773;53.388;-1.504;2023-07-13T05:36:17;6.28;;;4.93;;
67997;SDS011;54773;53.388;-1.504;2023-07-13T05:39:02;6.80;;;4.43;;
67997;SDS011;54773;53.388;-1.504;2023-07-13T05:41:47;6.10;;;4.38;;
67997;SDS011;54773;53.388;-1.504;2023-07-13T05:44:31;7.15;;;4.28;;
67997;SDS011;54773;53.388;-1.504;2023-07-13T05:47:16;6.45;;;4.38;;
67997;SDS011;54773;53.388;-1.504;2023-07-13T05:50:00;6.43;;;4.05;;
67997;SDS011;54773;53.388;-1.504;2023-07-13T05:52:44;5.18;;;3.90;;
67997;SDS011;54773;53.388;-1.504;2023-07-13T05:55:30;5.22;;;3.90;;
67997;SDS011;54773;53.388;-1.504;2023-07-13T05:58:14;6.78;;;4.53;;
67997;SDS011;54773;53.388;-1.504;2023-07-13T06:01:00;6.05;;;4.05;;
67997;SDS011;54773;53.388;-1.504;2023-07-13T06:03:46;7.35;;;3.92;;
67997;SDS011;54773;53.388;-1.504;2023-07-13T06:06:31;6.47;;;3.60;;
67997;SDS011;54773;53.388;-1.504;2023-07-13T06:09:18;5.00;;;3.40;;
67997;SDS011;54773;53.388;-1.504;2023-07-13T06:12:02;4.40;;;3.50;;
67997;SDS011;54773;53.388;-1.504;2023-07-13T06:14:46;5.53;;;3.40;;
67997;SDS011;54773;53.388;-1.504;2023-07-13T06:17:30;4.80;;;3.20;;
67997;SDS011;54773;53.388;-1.504;2023-07-13T06:20:14;4.72;;;3.20;;
67997;SDS011;54773;53.388;-1.504;2023-07-13T06:22:58;4.97;;;2.90;;
67997;SDS011;54773;53.388;-1.504;2023-07-13T06:25:43;4.38;;;2.90;;
67997;SDS011;54773;53.388;-1.504;2023-07-13T06:28:27;5.80;;;2.95;;
67997;SDS011;54773;53.388;-1.504;2023-07-13T06:33:56;5.00;;;3.05;;
67997;SDS011;54773;53.388;-1.504;2023-07-13T06:36:41;5.05;;;3.13;;
67997;SDS011;54773;53.388;-1.504;2023-07-13T06:39:25;4.72;;;2.85;;
67997;SDS011;54773;53.388;-1.504;2023-07-13T06:42:09;5.50;;;2.85;;
67997;SDS011;54773;53.388;-1.504;2023-07-13T06:47:37;4.43;;;2.92;;
67997;SDS011;54773;53.388;-1.504;2023-07-13T06:50:21;5.65;;;2.58;;
67997;SDS011;54773;53.388;-1.504;2023-07-13T06:53:06;5.00;;;2.78;;
67997;SDS011;54773;53.388;-1.504;2023-07-13T06:55:53;3.70;;;2.45;;
67997;SDS011;54773;53.388;-1.504;2023-07-13T06:58:44;3.47;;;2.33;;
67997;SDS011;54773;53.388;-1.504;2023-07-13T07:01:27;4.57;;;2.90;;
67997;SDS011;54773;53.388;-1.504;2023-07-13T07:04:11;5.00;;;2.90;;
67997;SDS011;54773;53.388;-1.504;2023-07-13T07:06:55;7.50;;;2.80;;
67997;SDS011;54773;53.388;-1.504;2023-07-13T07:09:39;4.75;;;3.00;;
67997;SDS011;54773;53.388;-1.504;2023-07-13T07:12:23;5.93;;;2.90;;
67997;SDS011;54773;53.388;-1.504;2023-07-13T07:15:07;6.40;;;3.05;;
67997;SDS011;54773;53.388;-1.504;2023-07-13T07:17:52;5.20;;;2.92;;
67997;SDS011;54773;53.388;-1.504;2023-07-13T07:20:36;4.38;;;3.03;;
67997;SDS011;54773;53.388;-1.504;2023-07-13T07:23:21;4.50;;;2.70;;
67997;SDS011;54773;53.388;-1.504;2023-07-13T07:26:06;4.72;;;2.83;;
67997;SDS011;54773;53.388;-1.504;2023-07-13T07:28:52;4.95;;;2.90;;
67997;SDS011;54773;53.388;-1.504;2023-07-13T07:31:36;7.10;;;2.70;;
67997;SDS011;54773;53.388;-1.504;2023-07-13T07:34:20;6.80;;;3.22;;
67997;SDS011;54773;53.388;-1.504;2023-07-13T07:37:04;6.28;;;2.80;;
67997;SDS011;54773;53.388;-1.504;2023-07-13T07:39:48;4.28;;;2.35;;
67997;SDS011;54773;53.388;-1.504;2023-07-13T07:42:32;3.92;;;2.10;;
67997;SDS011;54773;53.388;-1.504;2023-07-13T07:45:16;7.82;;;2.33;;
67997;SDS011;54773;53.388;-1.504;2023-07-13T07:48:00;5.90;;;2.65;;
67997;SDS011;54773;53.388;-1.504;2023-07-13T07:50:45;4.70;;;2.40;;
67997;SDS011;54773;53.388;-1.504;2023-07-13T07:53:29;5.22;;;2.35;;
67997;SDS011;54773;53.388;-1.504;2023-07-13T07:56:13;4.30;;;2.25;;
67997;SDS011;54773;53.388;-1.504;2023-07-13T07:58:59;4.95;;;2.22;;
67997;SDS011;54773;53.388;-1.504;2023-07-13T08:01:44;5.07;;;2.40;;
67997;SDS011;54773;53.388;-1.504;2023-07-13T08:04:29;4.75;;;2.40;;
67997;SDS011;54773;53.388;-1.504;2023-07-13T08:07:14;3.60;;;1.80;;
67997;SDS011;54773;53.388;-1.504;2023-07-13T08:09:58;5.28;;;1.80;;
67997;SDS011;54773;53.388;-1.504;2023-07-13T08:12:42;3.10;;;1.65;;
67997;SDS011;54773;53.388;-1.504;2023-07-13T08:15:26;5.77;;;1.80;;
67997;SDS011;54773;53.388;-1.504;2023-07-13T08:18:09;3.97;;;1.73;;
67997;SDS011;54773;53.388;-1.504;2023-07-13T08:20:53;3.97;;;2.00;;
67997;SDS011;54773;53.388;-1.504;2023-07-13T08:23:40;4.30;;;2.05;;
67997;SDS011;54773;53.388;-1.504;2023-07-13T08:26:23;5.57;;;1.90;;
67997;SDS011;54773;53.388;-1.504;2023-07-13T08:29:07;3.20;;;1.67;;
67997;SDS011;54773;53.388;-1.504;2023-07-13T08:31:51;4.95;;;1.98;;
67997;SDS011;54773;53.388;-1.504;2023-07-13T08:34:35;3.95;;;1.65;;
67997;SDS011;54773;53.388;-1.504;2023-07-13T08:37:19;4.05;;;1.60;;
67997;SDS011;54773;53.388;-1.504;2023-07-13T08:40:03;7.10;;;1.95;;
67997;SDS011;54773;53.388;-1.504;2023-07-13T08:42:59;5.60;;;1.65;;
67997;SDS011;54773;53.388;-1.504;2023-07-13T08:45:47;4.43;;;1.58;;
67997;SDS011;54773;53.388;-1.504;2023-07-13T08:48:36;4.20;;;1.60;;
67997;SDS011;54773;53.388;-1.504;2023-07-13T08:54:20;3.88;;;1.50;;
67997;SDS011;54773;53.388;-1.504;2023-07-13T08:57:29;4.47;;;1.60;;
67997;SDS011;54773;53.388;-1.504;2023-07-13T09:00:17;3.78;;;1.73;;
67997;SDS011;54773;53.388;-1.504;2023-07-13T09:03:01;5.13;;;1.90;;
67997;SDS011;54773;53.388;-1.504;2023-07-13T09:05:47;3.35;;;1.55;;
67997;SDS011;54773;53.388;-1.504;2023-07-13T09:14:55;3.72;;;1.67;;
67997;SDS011;54773;53.388;-1.504;2023-07-13T09:17:41;3.28;;;2.10;;
67997;SDS011;54773;53.388;-1.504;2023-07-13T09:20:32;4.43;;;2.30;;
67997;SDS011;54773;53.388;-1.504;2023-07-13T09:23:22;5.82;;;2.00;;
67997;SDS011;54773;53.388;-1.504;2023-07-13T09:26:12;4.65;;;2.08;;
67997;SDS011;54773;53.388;-1.504;2023-07-13T09:29:06;5.00;;;1.80;;
67997;SDS011;54773;53.388;-1.504;2023-07-13T09:31:55;3.70;;;1.58;;
67997;SDS011;54773;53.388;-1.504;2023-07-13T09:34:42;5.50;;;2.40;;
67997;SDS011;54773;53.388;-1.504;2023-07-13T09:37:38;4.38;;;2.20;;
67997;SDS011;54773;53.388;-1.504;2023-07-13T09:40:28;5.72;;;2.20;;
67997;SDS011;54773;53.388;-1.504;2023-07-13T09:43:17;3.80;;;1.77;;
67997;SDS011;54773;53.388;-1.504;2023-07-13T09:46:02;4.25;;;2.10;;
67997;SDS011;54773;53.388;-1.504;2023-07-13T09:48:47;3.67;;;1.98;;
67997;SDS011;54773;53.388;-1.504;2023-07-13T09:51:37;4.00;;;1.95;;
67997;SDS011;54773;53.388;-1.504;2023-07-13T09:54:23;3.60;;;2.00;;
67997;SDS011;54773;53.388;-1.504;2023-07-13T09:57:12;4.10;;;1.90;;
67997;SDS011;54773;53.388;-1.504;2023-07-13T09:59:58;5.15;;;1.80;;
67997;SDS011;54773;53.388;-1.504;2023-07-13T10:02:42;4.55;;;1.90;;
67997;SDS011;54773;53.388;-1.504;2023-07-13T10:05:42;5.20;;;1.73;;
67997;SDS011;54773;53.388;-1.504;2023-07-13T10:08:29;4.53;;;1.80;;
67997;SDS011;54773;53.388;-1.504;2023-07-13T10:11:18;4.45;;;2.10;;
67997;SDS011;54773;53.388;-1.504;2023-07-13T10:16:59;4.93;;;2.10;;
67997;SDS011;54773;53.388;-1.504;2023-07-13T10:19:47;5.00;;;2.10;;
67997;SDS011;54773;53.388;-1.504;2023-07-13T10:25:40;3.80;;;1.75;;
67997;SDS011;54773;53.388;-1.504;2023-07-13T10:28:30;5.43;;;2.20;;
67997;SDS011;54773;53.388;-1.504;2023-07-13T10:31:17;3.95;;;2.20;;
67997;SDS011;54773;53.388;-1.504;2023-07-13T10:34:02;4.38;;;2.50;;
67997;SDS011;54773;53.388;-1.504;2023-07-13T10:36:53;5.63;;;2.15;;
67997;SDS011;54773;53.388;-1.504;2023-07-13T10:39:38;6.93;;;2.50;;
67997;SDS011;54773;53.388;-1.504;2023-07-13T10:42:27;4.03;;;2.10;;
67997;SDS011;54773;53.388;-1.504;2023-07-13T10:45:17;3.40;;;1.90;;
67997;SDS011;54773;53.388;-1.504;2023-07-13T10:48:03;4.25;;;2.30;;
67997;SDS011;54773;53.388;-1.504;2023-07-13T10:50:51;5.50;;;1.83;;
67997;SDS011;54773;53.388;-1.504;2023-07-13T10:53:38;5.00;;;2.17;;
67997;SDS011;54773;53.388;-1.504;2023-07-13T10:56:29;3.95;;;2.05;;
67997;SDS011;54773;53.388;-1.504;2023-07-13T10:59:15;6.25;;;2.42;;
67997;SDS011;54773;53.388;-1.504;2023-07-13T11:04:54;5.03;;;2.60;;
67997;SDS011;54773;53.388;-1.504;2023-07-13T11:07:51;5.85;;;2.30;;
67997;SDS011;54773;53.388;-1.504;2023-07-13T11:10:47;5.78;;;2.50;;
67997;SDS011;54773;53.388;-1.504;2023-07-13T11:16:36;3.70;;;2.47;;
67997;SDS011;54773;53.388;-1.504;2023-07-13T11:19:37;5.10;;;2.42;;
67997;SDS011;54773;53.388;-1.504;2023-07-13T11:22:25;4.00;;;2.55;;
67997;SDS011;54773;53.388;-1.504;2023-07-13T11:25:27;5.40;;;2.60;;
67997;SDS011;54773;53.388;-1.504;2023-07-13T11:28:17;5.07;;;2.40;;
67997;SDS011;54773;53.388;-1.504;2023-07-13T11:31:12;4.65;;;2.22;;
67997;SDS011;54773;53.388;-1.504;2023-07-13T11:33:59;4.65;;;1.92;;
67997;SDS011;54773;53.388;-1.504;2023-07-13T11:36:44;4.13;;;1.73;;
67997;SDS011;54773;53.388;-1.504;2023-07-13T11:42:15;3.78;;;1.85;;
67997;SDS011;54773;53.388;-1.504;2023-07-13T11:45:00;3.85;;;1.80;;
67997;SDS011;54773;53.388;-1.504;2023-07-13T11:47:44;4.97;;;2.20;;
67997;SDS011;54773;53.388;-1.504;2023-07-13T11:50:29;3.85;;;1.63;;
67997;SDS011;54773;53.388;-1.504;2023-07-13T11:53:13;4.50;;;1.63;;
67997;SDS011;54773;53.388;-1.504;2023-07-13T11:55:57;4.20;;;2.00;;
67997;SDS011;54773;53.388;-1.504;2023-07-13T12:01:27;4.95;;;1.52;;
67997;SDS011;54773;53.388;-1.504;2023-07-13T12:04:20;4.75;;;1.40;;
67997;SDS011;54773;53.388;-1.504;2023-07-13T12:07:07;4.68;;;1.70;;
67997;SDS011;54773;53.388;-1.504;2023-07-13T12:10:21;4.78;;;1.60;;
67997;SDS011;54773;53.388;-1.504;2023-07-13T12:13:08;3.47;;;1.80;;
67997;SDS011;54773;53.388;-1.504;2023-07-13T12:15:52;4.63;;;1.65;;
67997;SDS011;54773;53.388;-1.504;2023-07-13T12:18:38;4.63;;;1.45;;
67997;SDS011;54773;53.388;-1.504;2023-07-13T12:24:14;3.58;;;1.60;;
67997;SDS011;54773;53.388;-1.504;2023-07-13T12:27:03;6.70;;;1.58;;
67997;SDS011;54773;53.388;-1.504;2023-07-13T12:29:49;6.28;;;1.50;;
67997;SDS011;54773;53.388;-1.504;2023-07-13T12:32:34;4.60;;;1.30;;
67997;SDS011;54773;53.388;-1.504;2023-07-13T12:35:18;5.85;;;1.33;;
67997;SDS011;54773;53.388;-1.504;2023-07-13T12:38:02;4.72;;;1.60;;
67997;SDS011;54773;53.388;-1.504;2023-07-13T12:40:48;4.68;;;1.33;;
67997;SDS011;54773;53.388;-1.504;2023-07-13T12:43:34;5.65;;;1.50;;
67997;SDS011;54773;53.388;-1.504;2023-07-13T12:46:23;4.65;;;1.80;;
67997;SDS011;54773;53.388;-1.504;2023-07-13T12:49:08;4.40;;;1.50;;
67997;SDS011;54773;53.388;-1.504;2023-07-13T12:51:55;3.58;;;1.20;;
67997;SDS011;54773;53.388;-1.504;2023-07-13T12:54:41;3.50;;;1.30;;
67997;SDS011;54773;53.388;-1.504;2023-07-13T12:57:26;3.58;;;1.23;;
67997;SDS011;54773;53.388;-1.504;2023-07-13T13:00:53;2.97;;;1.30;;
67997;SDS011;54773;53.388;-1.504;2023-07-13T13:09:02;3.55;;;1.50;;
67997;SDS011;54773;53.388;-1.504;2023-07-13T13:11:47;3.08;;;1.13;;
67997;SDS011;54773;53.388;-1.504;2023-07-13T13:14:31;4.50;;;1.52;;
67997;SDS011;54773;53.388;-1.504;2023-07-13T13:17:20;3.35;;;1.38;;
67997;SDS011;54773;53.388;-1.504;2023-07-13T13:20:20;5.80;;;1.48;;
67997;SDS011;54773;53.388;-1.504;2023-07-13T13:23:07;3.63;;;1.33;;
67997;SDS011;54773;53.388;-1.504;2023-07-13T13:26:02;3.70;;;1.48;;
67997;SDS011;54773;53.388;-1.504;2023-07-13T13:31:31;3.65;;;1.48;;
67997;SDS011;54773;53.388;-1.504;2023-07-13T13:34:16;4.65;;;1.63;;
67997;SDS011;54773;53.388;-1.504;2023-07-13T13:37:01;4.40;;;1.52;;
67997;SDS011;54773;53.388;-1.504;2023-07-13T13:39:45;3.53;;;1.52;;
67997;SDS011;54773;53.388;-1.504;2023-07-13T13:42:30;3.08;;;1.42;;
67997;SDS011;54773;53.388;-1.504;2023-07-13T13:45:14;3.95;;;1.58;;
67997;SDS011;54773;53.388;-1.504;2023-07-13T13:47:59;3.47;;;1.60;;
67997;SDS011;54773;53.388;-1.504;2023-07-13T13:50:43;3.72;;;1.70;;
67997;SDS011;54773;53.388;-1.504;2023-07-13T13:53:27;3.70;;;1.60;;
67997;SDS011;54773;53.388;-1.504;2023-07-13T13:56:12;5.03;;;1.77;;
67997;SDS011;54773;53.388;-1.504;2023-07-13T13:58:57;4.38;;;1.45;;
67997;SDS011;54773;53.388;-1.504;2023-07-13T14:01:42;3.50;;;1.60;;
67997;SDS011;54773;53.388;-1.504;2023-07-13T14:04:27;5.25;;;1.70;;
67997;SDS011;54773;53.388;-1.504;2023-07-13T14:07:11;3.78;;;1.58;;
67997;SDS011;54773;53.388;-1.504;2023-07-13T14:09:56;5.07;;;1.38;;
67997;SDS011;54773;53.388;-1.504;2023-07-13T14:13:00;2.90;;;1.30;;
67997;SDS011;54773;53.388;-1.504;2023-07-13T14:15:44;3.85;;;1.40;;
67997;SDS011;54773;53.388;-1.504;2023-07-13T14:21:16;4.43;;;1.50;;
67997;SDS011;54773;53.388;-1.504;2023-07-13T14:24:02;3.83;;;1.50;;
67997;SDS011;54773;53.388;-1.504;2023-07-13T14:26:46;3.30;;;1.40;;
67997;SDS011;54773;53.388;-1.504;2023-07-13T14:29:31;4.38;;;1.50;;
67997;SDS011;54773;53.388;-1.504;2023-07-13T14:32:17;7.28;;;1.70;;
67997;SDS011;54773;53.388;-1.504;2023-07-13T14:35:01;3.70;;;1.48;;
67997;SDS011;54773;53.388;-1.504;2023-07-13T14:37:45;3.30;;;1.70;;
67997;SDS011;54773;53.388;-1.504;2023-07-13T14:40:31;3.17;;;1.45;;
67997;SDS011;54773;53.388;-1.504;2023-07-13T14:43:16;5.18;;;1.35;;
67997;SDS011;54773;53.388;-1.504;2023-07-13T14:46:01;5.47;;;1.42;;
67997;SDS011;54773;53.388;-1.504;2023-07-13T14:48:44;3.95;;;1.58;;
67997;SDS011;54773;53.388;-1.504;2023-07-13T14:51:28;4.40;;;1.60;;
67997;SDS011;54773;53.388;-1.504;2023-07-13T14:56:57;5.53;;;1.63;;
67997;SDS011;54773;53.388;-1.504;2023-07-13T14:59:41;4.22;;;1.42;;
67997;SDS011;54773;53.388;-1.504;2023-07-13T15:02:36;3.95;;;1.50;;
67997;SDS011;54773;53.388;-1.504;2023-07-13T15:05:22;3.50;;;1.50;;
67997;SDS011;54773;53.388;-1.504;2023-07-13T15:08:08;3.55;;;1.67;;
67997;SDS011;54773;53.388;-1.504;2023-07-13T15:13:37;4.68;;;1.65;;
67997;SDS011;54773;53.388;-1.504;2023-07-13T15:16:23;5.00;;;1.50;;
67997;SDS011;54773;53.388;-1.504;2023-07-13T15:19:09;4.80;;;1.65;;
67997;SDS011;54773;53.388;-1.504;2023-07-13T15:21:54;3.40;;;1.70;;
67997;SDS011;54773;53.388;-1.504;2023-07-13T15:24:41;5.38;;;2.00;;
67997;SDS011;54773;53.388;-1.504;2023-07-13T15:27:24;5.07;;;1.85;;
67997;SDS011;54773;53.388;-1.504;2023-07-13T15:33:05;4.55;;;1.85;;
67997;SDS011;54773;53.388;-1.504;2023-07-13T15:35:55;3.45;;;1.25;;
67997;SDS011;54773;53.388;-1.504;2023-07-13T15:38:40;4.05;;;1.60;;
67997;SDS011;54773;53.388;-1.504;2023-07-13T15:41:26;4.22;;;1.60;;
67997;SDS011;54773;53.388;-1.504;2023-07-13T15:44:21;4.30;;;1.80;;
67997;SDS011;54773;53.388;-1.504;2023-07-13T15:47:11;3.33;;;1.60;;
67997;SDS011;54773;53.388;-1.504;2023-07-13T15:49:55;4.00;;;2.00;;
67997;SDS011;54773;53.388;-1.504;2023-07-13T15:52:42;2.90;;;1.25;;
67997;SDS011;54773;53.388;-1.504;2023-07-13T15:55:27;4.03;;;1.50;;
67997;SDS011;54773;53.388;-1.504;2023-07-13T15:58:11;3.67;;;1.30;;
67997;SDS011;54773;53.388;-1.504;2023-07-13T16:00:58;3.58;;;1.42;;
67997;SDS011;54773;53.388;-1.504;2023-07-13T16:03:42;3.53;;;1.50;;
67997;SDS011;54773;53.388;-1.504;2023-07-13T16:06:31;4.22;;;1.52;;
67997;SDS011;54773;53.388;-1.504;2023-07-13T16:09:18;4.68;;;1.77;;
67997;SDS011;54773;53.388;-1.504;2023-07-13T16:12:11;4.82;;;1.55;;
67997;SDS011;54773;53.388;-1.504;2023-07-13T16:14:56;5.35;;;1.60;;
67997;SDS011;54773;53.388;-1.504;2023-07-13T16:17:40;4.57;;;1.70;;
67997;SDS011;54773;53.388;-1.504;2023-07-13T16:20:24;3.53;;;1.77;;
67997;SDS011;54773;53.388;-1.504;2023-07-13T16:23:08;3.83;;;1.83;;
67997;SDS011;54773;53.388;-1.504;2023-07-13T16:25:53;6.07;;;1.70;;
67997;SDS011;54773;53.388;-1.504;2023-07-13T16:28:37;4.90;;;1.63;;
67997;SDS011;54773;53.388;-1.504;2023-07-13T16:31:21;4.97;;;2.08;;
67997;SDS011;54773;53.388;-1.504;2023-07-13T16:34:06;4.20;;;1.80;;
67997;SDS011;54773;53.388;-1.504;2023-07-13T16:36:53;5.25;;;1.90;;
67997;SDS011;54773;53.388;-1.504;2023-07-13T16:39:37;5.32;;;3.38;;
67997;SDS011;54773;53.388;-1.504;2023-07-13T16:42:22;6.18;;;2.67;;
67997;SDS011;54773;53.388;-1.504;2023-07-13T16:45:08;3.83;;;2.25;;
67997;SDS011;54773;53.388;-1.504;2023-07-13T16:47:55;4.03;;;2.40;;
67997;SDS011;54773;53.388;-1.504;2023-07-13T16:50:41;4.63;;;1.80;;
67997;SDS011;54773;53.388;-1.504;2023-07-13T16:53:29;3.25;;;1.70;;
67997;SDS011;54773;53.388;-1.504;2023-07-13T16:56:14;3.55;;;1.60;;
67997;SDS011;54773;53.388;-1.504;2023-07-13T16:59:01;11.05;;;7.03;;
67997;SDS011;54773;53.388;-1.504;2023-07-13T17:01:46;12.95;;;9.45;;
67997;SDS011;54773;53.388;-1.504;2023-07-13T17:04:37;5.05;;;2.08;;
67997;SDS011;54773;53.388;-1.504;2023-07-13T17:07:20;4.68;;;1.90;;
67997;SDS011;54773;53.388;-1.504;2023-07-13T17:10:06;4.32;;;1.50;;
67997;SDS011;54773;53.388;-1.504;2023-07-13T17:13:02;3.35;;;1.70;;
67997;SDS011;54773;53.388;-1.504;2023-07-13T17:15:48;5.07;;;1.80;;
67997;SDS011;54773;53.388;-1.504;2023-07-13T17:18:40;6.43;;;2.25;;
67997;SDS011;54773;53.388;-1.504;2023-07-13T17:21:25;5.25;;;1.80;;
67997;SDS011;54773;53.388;-1.504;2023-07-13T17:24:18;10.00;;;2.33;;